Time;durP1;ratioP1;P1;durP2;ratioP2;P2;SDS_P1;SDS_P2;PMS_P1;PMS_P2;Temp;Humidity;BMP_temperature;BMP_pressure;BME280_temperature;BME280_humidity;BME280_pressure;Samples;Min_cycle;Max_cycle;Signal;HPM_P1;HPM_P2
2023/10/16 00:02:13;;;;;;;3.87;1.43;;;5.70;92.40;;;;;;5043830;28;20437;-58
2023/10/16 00:04:43;;;;;;;9.20;2.00;;;5.70;89.60;;;;;;5038944;28;20515;-58
2023/10/16 00:07:14;;;;;;;5.60;1.77;;;5.60;88.80;;;;;;5031412;28;20458;-57
2023/10/16 00:09:41;;;;;;;2.23;1.47;;;5.70;87.30;;;;;;5046241;28;20485;-58
2023/10/16 00:12:08;;;;;;;7.50;1.33;;;5.60;87.60;;;;;;5043096;28;20438;-58
2023/10/16 00:14:37;;;;;;;6.93;2.10;;;5.70;87.10;;;;;;5049284;28;20982;-58
2023/10/16 00:17:08;;;;;;;4.63;1.90;;;5.60;87.60;;;;;;5043179;28;20484;-58
2023/10/16 00:19:37;;;;;;;2.40;1.50;;;5.60;87.20;;;;;;5047207;28;20521;-58
2023/10/16 00:22:10;;;;;;;4.37;1.53;;;5.60;86.10;;;;;;5042966;28;20464;-58
2023/10/16 00:24:37;;;;;;;4.00;1.50;;;5.70;86.30;;;;;;5043121;28;20438;-57
2023/10/16 00:27:05;;;;;;;3.83;1.50;;;5.70;86.10;;;;;;5045183;28;20887;-57
2023/10/16 00:29:35;;;;;;;3.57;1.63;;;5.60;87.40;;;;;;5050652;28;20481;-57
2023/10/16 00:32:07;;;;;;;7.03;2.00;;;5.70;86.60;;;;;;5048941;28;20553;-59
2023/10/16 00:34:34;;;;;;;12.17;2.03;;;5.60;86.70;;;;;;5050741;28;20472;-57
2023/10/16 00:37:04;;;;;;;5.30;1.63;;;5.60;86.30;;;;;;5050201;28;20469;-58
2023/10/16 00:39:31;;;;;;;8.30;1.90;;;5.60;86.50;;;;;;5046459;28;20932;-57
2023/10/16 00:41:58;;;;;;;3.87;1.47;;;5.60;84.50;;;;;;5052185;28;20465;-57
2023/10/16 00:44:26;;;;;;;2.10;1.33;;;5.60;84.00;;;;;;5051320;28;20964;-57
2023/10/16 00:46:53;;;;;;;7.50;1.77;;;5.60;83.30;;;;;;5045967;28;20498;-57
2023/10/16 00:49:24;;;;;;;4.47;1.57;;;5.60;83.30;;;;;;5054543;28;20485;-57
2023/10/16 00:51:50;;;;;;;3.23;1.50;;;5.60;82.20;;;;;;5043967;28;20978;-58
2023/10/16 00:54:27;;;;;;;5.30;1.60;;;5.60;83.50;;;;;;5048185;28;20856;-58
2023/10/16 00:56:57;;;;;;;3.77;1.77;;;5.50;82.70;;;;;;5044094;28;20814;-57
2023/10/16 00:59:24;;;;;;;5.70;1.73;;;5.50;82.80;;;;;;5047891;28;20468;-57
2023/10/16 01:02:04;;;;;;;2.87;1.33;;;5.50;82.40;;;;;;5045736;28;20472;-57
2023/10/16 01:04:32;;;;;;;4.00;1.97;;;5.50;82.10;;;;;;5045951;28;20915;-57
2023/10/16 01:07:00;;;;;;;3.33;1.43;;;5.50;81.50;;;;;;5052510;28;20482;-57
2023/10/16 01:09:33;;;;;;;2.20;1.40;;;5.50;80.80;;;;;;5052548;28;20502;-58
2023/10/16 01:12:01;;;;;;;4.63;1.70;;;5.40;82.60;;;;;;5056275;28;20465;-58
2023/10/16 01:14:29;;;;;;;2.53;1.30;;;5.40;81.00;;;;;;5055831;28;20524;-57
2023/10/16 01:16:55;;;;;;;8.63;2.50;;;5.40;79.40;;;;;;5048974;28;20995;-57
2023/10/16 01:19:22;;;;;;;5.10;1.73;;;5.40;79.40;;;;;;5046472;28;20504;-57
2023/10/16 01:21:50;;;;;;;3.87;1.63;;;5.50;79.90;;;;;;5050860;28;20497;-58
2023/10/16 01:24:19;;;;;;;5.90;1.50;;;5.40;81.20;;;;;;5047168;28;20462;-57
2023/10/16 01:26:46;;;;;;;6.33;2.03;;;5.40;81.00;;;;;;5043107;28;20483;-57
2023/10/16 01:29:15;;;;;;;5.40;1.93;;;5.40;81.60;;;;;;5045324;28;20553;-56
2023/10/16 01:31:44;;;;;;;10.07;2.27;;;5.40;82.10;;;;;;5053407;28;20446;-56
2023/10/16 01:34:11;;;;;;;4.97;1.50;;;5.40;82.50;;;;;;5045194;28;20923;-57
2023/10/16 01:36:38;;;;;;;6.33;1.60;;;5.40;80.60;;;;;;5052788;28;20458;-57
2023/10/16 01:39:08;;;;;;;5.33;2.00;;;5.40;80.90;;;;;;5051045;28;20882;-59
2023/10/16 01:41:39;;;;;;;4.83;2.13;;;5.30;81.80;;;;;;5043433;28;20548;-57
2023/10/16 01:44:09;;;;;;;2.97;1.43;;;5.30;80.40;;;;;;5047117;28;20491;-55
2023/10/16 01:46:36;;;;;;;2.37;1.30;;;5.20;81.20;;;;;;5048687;28;20466;-55
2023/10/16 01:49:05;;;;;;;3.40;1.50;;;5.30;79.80;;;;;;5041180;28;20483;-57
2023/10/16 01:51:35;;;;;;;4.73;1.47;;;5.20;79.30;;;;;;5048628;28;20466;-56
2023/10/16 01:54:11;;;;;;;6.43;1.67;;;5.20;76.20;;;;;;5038778;28;20457;-55
2023/10/16 01:56:38;;;;;;;5.73;1.90;;;5.20;74.80;;;;;;5044282;28;20826;-56
2023/10/16 01:59:06;;;;;;;3.50;1.43;;;5.20;74.50;;;;;;5036583;28;20454;-55
2023/10/16 02:01:32;;;;;;;9.33;2.47;;;5.20;74.10;;;;;;5048729;28;20466;-57
2023/10/16 02:04:01;;;;;;;10.17;2.00;;;5.20;69.40;;;;;;5048468;28;20466;-55
2023/10/16 02:06:28;;;;;;;2.13;1.40;;;5.20;68.90;;;;;;5042799;28;20462;-56
2023/10/16 02:08:56;;;;;;;3.93;1.57;;;5.20;69.60;;;;;;5051377;28;20573;-56
2023/10/16 02:11:22;;;;;;;5.03;1.90;;;5.10;69.70;;;;;;5048999;28;20474;-56
2023/10/16 02:13:50;;;;;;;4.90;1.50;;;5.10;68.60;;;;;;5048413;28;20969;-56
2023/10/16 02:16:18;;;;;;;10.40;2.00;;;5.10;68.70;;;;;;5041787;28;20524;-56
2023/10/16 02:18:47;;;;;;;3.37;1.50;;;5.10;66.00;;;;;;5050322;28;20481;-56
2023/10/16 02:21:15;;;;;;;11.10;1.60;;;5.10;66.50;;;;;;5045431;28;20459;-57
2023/10/16 02:23:43;;;;;;;15.60;1.90;;;5.10;67.50;;;;;;5047171;28;20551;-57
2023/10/16 02:26:10;;;;;;;4.17;1.70;;;5.00;66.60;;;;;;5051207;28;20458;-57
2023/10/16 02:28:40;;;;;;;4.43;1.77;;;5.00;66.00;;;;;;5043870;28;20569;-56
2023/10/16 02:31:13;;;;;;;10.80;1.60;;;5.00;64.90;;;;;;5047426;28;20519;-57
2023/10/16 02:33:44;;;;;;;7.00;1.77;;;5.00;65.00;;;;;;5046422;28;20497;-56
2023/10/16 02:36:11;;;;;;;3.40;2.00;;;5.00;63.80;;;;;;5044217;28;20551;-56
2023/10/16 02:38:37;;;;;;;4.10;1.53;;;4.90;64.10;;;;;;5032946;23;20488;-56
2023/10/16 02:41:04;;;;;;;7.73;1.90;;;4.90;65.00;;;;;;5000134;28;20487;-57
2023/10/16 02:43:33;;;;;;;4.60;2.20;;;4.80;64.40;;;;;;5012211;28;20545;-56
2023/10/16 02:46:04;;;;;;;5.37;1.90;;;4.80;64.40;;;;;;5006257;28;20464;-56
2023/10/16 02:48:32;;;;;;;7.63;1.80;;;4.80;62.70;;;;;;5003941;28;20484;-56
2023/10/16 02:50:59;;;;;;;4.97;2.10;;;4.80;59.30;;;;;;5011852;28;20533;-57
2023/10/16 02:53:27;;;;;;;7.80;2.53;;;4.80;57.90;;;;;;5010936;28;20444;-56
2023/10/16 02:55:59;;;;;;;4.93;1.60;;;4.80;59.20;;;;;;5012454;28;20497;-58
2023/10/16 02:58:26;;;;;;;5.33;1.73;;;4.80;58.20;;;;;;5001893;28;20506;-57
2023/10/16 03:00:55;;;;;;;4.90;1.60;;;4.70;58.60;;;;;;5010124;28;20459;-57
2023/10/16 03:03:24;;;;;;;15.37;2.37;;;4.70;56.10;;;;;;5002166;28;20459;-56
2023/10/16 03:05:53;;;;;;;6.17;1.80;;;4.70;55.30;;;;;;5010775;28;21013;-58
2023/10/16 03:08:22;;;;;;;4.10;2.30;;;4.70;56.50;;;;;;5005790;28;20980;-56
2023/10/16 03:10:49;;;;;;;4.00;1.70;;;4.60;56.20;;;;;;5004257;28;20515;-56
2023/10/16 03:13:18;;;;;;;6.73;2.40;;;4.60;55.10;;;;;;5011146;28;20444;-56
2023/10/16 03:15:46;;;;;;;2.70;1.50;;;4.60;53.80;;;;;;5011880;28;20498;-56
2023/10/16 03:18:17;;;;;;;4.33;2.00;;;4.60;52.60;;;;;;5001974;28;20480;-56
2023/10/16 03:20:45;;;;;;;14.60;2.47;;;4.60;51.00;;;;;;5004324;28;20463;-57
2023/10/16 03:23:18;;;;;;;7.50;2.07;;;4.60;51.30;;;;;;5003070;28;20871;-56
2023/10/16 03:25:51;;;;;;;5.03;2.10;;;4.60;50.30;;;;;;5007425;28;20470;-57
2023/10/16 03:28:18;;;;;;;8.57;2.13;;;4.60;49.30;;;;;;5011025;28;20479;-56
2023/10/16 03:30:45;;;;;;;12.60;2.07;;;4.60;48.30;;;;;;5003369;28;20487;-56
2023/10/16 03:33:14;;;;;;;5.00;1.80;;;4.60;47.90;;;;;;4997786;28;20543;-56
2023/10/16 03:35:45;;;;;;;5.70;1.70;;;4.60;47.80;;;;;;5007588;28;20486;-56
2023/10/16 03:38:20;;;;;;;3.63;1.70;;;4.60;48.10;;;;;;5004502;28;20580;-57
2023/10/16 03:40:50;;;;;;;6.90;2.03;;;4.50;47.50;;;;;;4999833;28;20447;-57
2023/10/16 03:43:18;;;;;;;2.53;1.60;;;4.60;45.20;;;;;;4996910;28;20467;-56
2023/10/16 03:45:45;;;;;;;7.40;2.47;;;4.50;45.30;;;;;;5008105;28;20530;-56
2023/10/16 03:48:12;;;;;;;10.63;2.43;;;4.50;44.80;;;;;;5004609;28;20478;-56
2023/10/16 03:50:39;;;;;;;5.83;1.80;;;4.50;45.00;;;;;;5001896;28;20488;-57
2023/10/16 03:53:07;;;;;;;3.03;1.57;;;4.50;44.20;;;;;;4998175;28;20586;-57
2023/10/16 03:55:43;;;;;;;9.00;2.10;;;4.50;42.90;;;;;;5007029;28;20492;-56
2023/10/16 03:58:11;;;;;;;8.03;1.60;;;4.50;42.80;;;;;;5003288;28;20476;-57
2023/10/16 04:00:50;;;;;;;6.67;2.47;;;4.50;42.70;;;;;;5006430;28;20436;-57
2023/10/16 04:03:17;;;;;;;4.23;1.80;;;4.50;43.10;;;;;;5010534;28;20897;-57
2023/10/16 04:05:46;;;;;;;2.93;1.97;;;4.50;43.50;;;;;;5006589;28;20495;-58
2023/10/16 04:08:13;;;;;;;5.40;1.63;;;4.50;43.30;;;;;;5011743;28;21538;-57
2023/10/16 04:10:46;;;;;;;7.90;2.13;;;4.50;43.20;;;;;;5005505;28;20484;-57
2023/10/16 04:13:13;;;;;;;5.63;2.00;;;4.50;42.80;;;;;;4999422;28;20475;-57
2023/10/16 04:15:59;;;;;;;3.57;1.40;;;4.40;43.60;;;;;;5007547;28;20550;-56
2023/10/16 04:18:30;;;;;;;5.43;2.13;;;4.40;40.60;;;;;;5008145;28;20480;-56
2023/10/16 04:21:17;;;;;;;7.13;1.83;;;4.40;41.40;;;;;;5004907;28;20446;-56
2023/10/16 04:23:52;;;;;;;4.33;2.20;;;4.40;40.40;;;;;;5013450;28;20536;-56
2023/10/16 04:26:33;;;;;;;10.23;1.97;;;4.40;41.30;;;;;;5001157;28;20827;-56
2023/10/16 04:31:45;;;;;;;7.97;2.03;;;4.30;41.70;;;;;;5008080;28;20944;-56
2023/10/16 04:34:24;;;;;;;5.23;1.83;;;4.40;39.20;;;;;;5014724;28;20456;-57
2023/10/16 04:36:53;;;;;;;4.00;1.47;;;4.30;39.80;;;;;;5004817;28;20882;-57
2023/10/16 04:47:48;;;;;;;4.47;1.40;;;4.30;37.60;;;;;;5013229;28;20476;-57
2023/10/16 04:50:15;;;;;;;4.17;1.37;;;4.30;37.60;;;;;;5009826;28;20488;-57
2023/10/16 04:55:53;;;;;;;3.87;1.50;;;4.30;36.30;;;;;;5007203;28;20446;-56
2023/10/16 04:58:38;;;;;;;4.57;1.70;;;4.40;35.00;;;;;;5005593;28;20993;-56
2023/10/16 05:04:49;;;;;;;8.30;2.20;;;4.40;36.20;;;;;;4953345;29;20446;-59
2023/10/16 05:07:17;;;;;;;4.00;1.60;;;4.40;36.30;;;;;;4953080;29;20446;-59
2023/10/16 05:18:11;;;;;;;5.73;2.00;;;4.30;37.00;;;;;;4998798;28;21078;-57
2023/10/16 05:21:16;;;;;;;8.17;2.77;;;4.30;36.20;;;;;;5009273;28;20460;-57
2023/10/16 06:15:50;;;;;;;4.63;2.20;;;4.50;30.80;;;;;;5001330;28;20522;-61
2023/10/16 06:18:16;;;;;;;11.53;2.77;;;4.50;30.10;;;;;;4998579;28;21002;-61
2023/10/16 06:20:44;;;;;;;5.90;2.17;;;4.60;31.00;;;;;;5006288;28;20484;-62
2023/10/16 06:23:11;;;;;;;7.80;2.43;;;4.60;30.80;;;;;;4992753;28;20468;-62
2023/10/16 06:25:38;;;;;;;5.77;2.17;;;4.60;32.70;;;;;;4994716;28;20441;-61
2023/10/16 06:28:10;;;;;;;6.43;2.07;;;4.70;31.80;;;;;;5005922;28;20491;-61
2023/10/16 06:30:38;;;;;;;5.20;2.17;;;4.70;32.50;;;;;;4998678;28;21084;-61
2023/10/16 06:33:05;;;;;;;6.70;2.30;;;4.80;32.00;;;;;;5004349;28;20537;-61
2023/10/16 06:35:32;;;;;;;8.27;1.97;;;4.80;33.70;;;;;;4997595;28;20527;-62
2023/10/16 06:38:01;;;;;;;6.20;1.80;;;4.80;34.70;;;;;;4992874;28;20535;-61
2023/10/16 06:40:28;;;;;;;4.97;2.10;;;4.80;37.50;;;;;;5001688;28;20880;-62
2023/10/16 06:43:09;;;;;;;3.77;2.10;;;4.90;36.30;;;;;;5010951;28;20472;-61
2023/10/16 06:45:41;;;;;;;7.30;1.80;;;5.00;36.80;;;;;;5024547;28;20468;-61
2023/10/16 06:48:14;;;;;;;8.20;2.70;;;5.00;37.00;;;;;;5020503;28;21115;-62
2023/10/16 06:50:45;;;;;;;7.20;1.90;;;5.10;36.50;;;;;;5021781;28;20603;-62
2023/10/16 06:53:13;;;;;;;5.47;2.40;;;5.10;36.40;;;;;;5017283;28;20455;-62
2023/10/16 06:55:40;;;;;;;3.00;1.73;;;5.20;38.10;;;;;;5009688;28;20508;-62
2023/10/16 06:58:06;;;;;;;6.47;2.10;;;5.20;38.60;;;;;;5026724;28;21039;-62
2023/10/16 07:00:33;;;;;;;4.73;1.83;;;5.20;40.60;;;;;;5018350;28;20451;-61
2023/10/16 07:03:06;;;;;;;6.73;1.80;;;5.30;39.10;;;;;;5005120;28;20927;-61
2023/10/16 07:05:43;;;;;;;4.67;2.10;;;5.40;42.50;;;;;;5007038;28;20551;-62
2023/10/16 07:08:16;;;;;;;4.80;2.30;;;5.40;41.10;;;;;;5007164;28;20483;-61
2023/10/16 07:10:48;;;;;;;6.70;2.03;;;5.50;44.90;;;;;;5005031;28;20491;-61
2023/10/16 07:13:15;;;;;;;8.63;2.30;;;5.60;46.00;;;;;;5010146;28;20472;-61
2023/10/16 07:15:46;;;;;;;3.73;2.13;;;5.60;48.60;;;;;;5010604;28;20545;-61
2023/10/16 07:18:14;;;;;;;7.33;2.30;;;5.70;52.20;;;;;;4997709;28;20500;-62
2023/10/16 07:20:53;;;;;;;9.00;3.00;;;5.70;52.50;;;;;;4998335;28;20676;-62
2023/10/16 07:23:24;;;;;;;3.63;2.13;;;5.80;53.00;;;;;;5002810;28;20803;-62
2023/10/16 07:25:54;;;;;;;5.00;3.10;;;5.80;52.40;;;;;;4997287;28;20455;-61
2023/10/16 07:28:21;;;;;;;5.00;1.90;;;5.90;52.90;;;;;;5004621;28;20511;-62
2023/10/16 07:30:48;;;;;;;14.83;3.07;;;5.90;59.70;;;;;;4995393;28;20986;-62
2023/10/16 07:33:15;;;;;;;5.60;1.90;;;6.00;62.10;;;;;;5007309;28;20490;-62
2023/10/16 07:35:44;;;;;;;5.70;1.73;;;6.10;62.00;;;;;;5001171;28;20460;-62
2023/10/16 07:38:11;;;;;;;4.63;1.80;;;6.20;66.30;;;;;;5008246;28;21024;-62
2023/10/16 07:40:39;;;;;;;8.07;2.33;;;6.30;66.30;;;;;;5009579;28;20495;-57
2023/10/16 07:43:06;;;;;;;9.30;1.73;;;6.30;68.50;;;;;;4997696;28;20519;-62
2023/10/16 07:45:33;;;;;;;3.67;1.90;;;6.30;75.50;;;;;;5007186;28;20472;-61
2023/10/16 07:48:07;;;;;;;12.13;2.53;;;6.40;71.40;;;;;;5005642;28;20873;-61
2023/10/16 07:50:38;;;;;;;5.27;2.23;;;6.50;72.70;;;;;;4996101;28;20846;-62
2023/10/16 07:53:06;;;;;;;8.50;2.40;;;6.50;76.90;;;;;;5002275;28;20452;-61
2023/10/16 07:55:39;;;;;;;4.23;2.03;;;6.60;76.30;;;;;;5008365;28;20463;-61
2023/10/16 07:58:15;;;;;;;7.60;2.60;;;6.60;80.30;;;;;;4995240;28;20464;-61
2023/10/16 08:00:56;;;;;;;2.80;2.60;;;6.60;80.80;;;;;;5010726;28;20466;-61
2023/10/16 08:03:23;;;;;;;8.60;2.43;;;6.80;77.60;;;;;;4998106;28;20935;-61
2023/10/16 08:05:49;;;;;;;7.90;2.50;;;6.80;80.50;;;;;;4997940;28;20495;-61
2023/10/16 08:08:25;;;;;;;4.10;1.70;;;6.90;86.70;;;;;;5005923;28;20538;-61
2023/10/16 08:10:52;;;;;;;7.97;2.40;;;6.90;92.10;;;;;;5006843;28;20540;-61
2023/10/16 08:13:24;;;;;;;5.87;2.03;;;7.00;95.10;;;;;;5007831;28;20455;-61
2023/10/16 08:15:51;;;;;;;4.87;1.90;;;7.10;96.70;;;;;;5006972;28;20554;-61
2023/10/16 08:18:19;;;;;;;4.70;2.10;;;7.10;99.90;;;;;;4996577;28;20590;-60
2023/10/16 08:21:01;;;;;;;5.50;1.93;;;7.10;99.90;;;;;;5002777;28;20555;-62
2023/10/16 08:23:34;;;;;;;4.90;2.30;;;7.20;99.90;;;;;;5002525;28;20455;-64
2023/10/16 08:26:04;;;;;;;7.20;2.10;;;7.20;99.90;;;;;;4999973;28;20970;-62
2023/10/16 08:28:36;;;;;;;5.27;1.60;;;7.40;99.90;;;;;;4997790;28;20484;-61
2023/10/16 08:31:10;;;;;;;4.67;1.90;;;7.40;99.90;;;;;;5000925;28;20487;-62
2023/10/16 08:33:37;;;;;;;3.10;1.70;;;7.50;99.90;;;;;;5002540;28;20467;-60
2023/10/16 08:36:05;;;;;;;4.33;1.70;;;7.60;99.90;;;;;;5006277;28;20464;-62
2023/10/16 08:38:33;;;;;;;5.40;1.90;;;7.70;99.90;;;;;;5026384;23;20985;-56
2023/10/16 08:41:07;;;;;;;5.93;3.20;;;7.80;99.90;;;;;;5014953;28;20463;-57
2023/10/16 08:43:54;;;;;;;2.17;1.73;;;7.90;99.90;;;;;;5014159;28;20965;-56
2023/10/16 08:46:30;;;;;;;4.23;2.07;;;8.10;99.90;;;;;;5027957;28;20458;-57
2023/10/16 08:48:57;;;;;;;5.97;2.23;;;8.40;99.90;;;;;;5025001;28;20482;-56
2023/10/16 08:51:28;;;;;;;10.23;3.00;;;8.70;99.90;;;;;;5014922;28;20624;-56
2023/10/16 08:53:59;;;;;;;10.80;2.40;;;8.80;99.90;;;;;;5021355;28;20477;-56
2023/10/16 08:56:26;;;;;;;11.27;3.40;;;8.80;99.90;;;;;;5023814;28;20912;-57
2023/10/16 08:58:57;;;;;;;4.03;2.10;;;8.60;99.90;;;;;;5021091;28;22724;-57
2023/10/16 09:01:27;;;;;;;4.37;2.10;;;8.80;99.90;;;;;;5029836;28;20451;-57
2023/10/16 09:04:01;;;;;;;4.90;2.57;;;8.70;99.90;;;;;;5029043;28;20837;-57
2023/10/16 09:06:29;;;;;;;10.40;1.93;;;8.60;99.90;;;;;;5022139;28;20922;-56
2023/10/16 09:08:58;;;;;;;4.80;1.80;;;8.50;99.90;;;;;;5027339;28;20991;-55
2023/10/16 09:11:26;;;;;;;6.00;2.30;;;8.40;99.90;;;;;;5029793;28;20505;-54
2023/10/16 09:13:54;;;;;;;7.07;3.80;;;8.50;99.90;;;;;;5024192;28;20463;-55
2023/10/16 09:16:23;;;;;;;7.40;2.50;;;8.70;99.90;;;;;;5013665;28;20509;-55
2023/10/16 09:18:52;;;;;;;8.60;2.30;;;8.70;99.90;;;;;;5025396;28;20490;-55
2023/10/16 09:21:24;;;;;;;6.10;2.10;;;9.10;99.90;;;;;;5027326;28;21155;-56
2023/10/16 09:23:52;;;;;;;4.73;2.27;;;9.30;99.90;;;;;;5020282;28;20526;-54
2023/10/16 09:26:19;;;;;;;6.00;2.10;;;9.60;99.90;;;;;;5026416;28;20857;-54
2023/10/16 09:28:49;;;;;;;5.33;2.50;;;10.50;99.90;;;;;;5027356;28;20847;-55
2023/10/16 09:31:18;;;;;;;8.57;2.20;;;10.60;85.40;;;;;;5028779;28;21005;-55
2023/10/16 09:33:48;;;;;;;4.33;2.03;;;10.80;99.90;;;;;;5028113;28;20467;-55
2023/10/16 09:36:21;;;;;;;5.20;1.90;;;10.40;99.90;;;;;;5022419;28;20460;-54
2023/10/16 09:38:51;;;;;;;4.97;1.90;;;9.60;99.90;;;;;;5029649;28;20498;-54
2023/10/16 09:44:07;;;;;;;13.07;2.03;;;9.30;99.90;;;;;;5027029;28;20438;-55
2023/10/16 09:46:52;;;;;;;3.00;1.97;;;9.70;99.90;;;;;;5028458;28;20466;-55
2023/10/16 09:49:21;;;;;;;4.50;2.07;;;9.70;99.90;;;;;;5022016;28;20613;-55
2023/10/16 09:51:48;;;;;;;5.37;1.80;;;10.10;99.90;;;;;;5027835;28;20485;-55
2023/10/16 09:54:15;;;;;;;9.80;1.80;;;11.00;27.10;;;;;;5028496;28;20471;-55
2023/10/16 09:56:45;;;;;;;11.47;2.10;;;10.70;23.70;;;;;;5037671;28;20552;-56
2023/10/16 09:59:24;;;;;;;7.93;2.50;;;10.80;28.30;;;;;;5027771;28;20480;-56
2023/10/16 10:02:02;;;;;;;10.47;2.10;;;10.50;23.70;;;;;;5029154;28;20459;-56
2023/10/16 10:04:32;;;;;;;6.93;2.17;;;10.90;30.10;;;;;;5029377;28;20458;-56
2023/10/16 10:07:03;;;;;;;8.50;1.70;;;10.70;41.20;;;;;;5021965;28;20462;-56
2023/10/16 10:09:42;;;;;;;8.50;1.70;;;10.50;42.30;;;;;;5029567;28;20994;-56
2023/10/16 10:12:23;;;;;;;3.80;1.33;;;10.40;38.40;;;;;;5024831;28;20518;-55
2023/10/16 10:15:04;;;;;;;3.87;1.60;;;10.20;24.10;;;;;;5024596;28;20552;-55
2023/10/16 10:17:34;;;;;;;4.87;1.63;;;9.90;99.90;;;;;;5029250;28;20529;-54
2023/10/16 10:20:08;;;;;;;3.30;1.47;;;9.80;99.90;;;;;;5014333;28;20503;-55
2023/10/16 10:22:35;;;;;;;4.83;1.70;;;9.70;99.90;;;;;;5033046;28;20439;-55
2023/10/16 10:25:11;;;;;;;8.73;1.93;;;9.80;99.90;;;;;;5023251;28;20936;-56
2023/10/16 10:27:41;;;;;;;9.27;1.80;;;10.00;99.90;;;;;;5034939;28;20474;-55
2023/10/16 10:30:14;;;;;;;6.20;2.00;;;10.20;99.90;;;;;;5035800;28;20754;-56
2023/10/16 10:32:42;;;;;;;7.50;1.77;;;10.50;22.50;;;;;;5043341;28;20475;-55
2023/10/16 10:35:21;;;;;;;3.53;1.60;;;10.50;24.20;;;;;;5031117;28;20459;-56
2023/10/16 10:37:48;;;;;;;8.10;2.00;;;10.50;37.80;;;;;;5041808;28;20490;-56
2023/10/16 10:40:21;;;;;;;5.50;2.37;;;10.30;39.10;;;;;;5026414;28;20489;-56
2023/10/16 10:42:53;;;;;;;5.20;1.50;;;10.40;36.80;;;;;;5020177;28;20455;-55
2023/10/16 10:45:33;;;;;;;3.23;1.63;;;10.40;43.10;;;;;;5027749;28;20455;-55
2023/10/16 10:48:06;;;;;;;6.40;2.00;;;10.30;41.30;;;;;;5030589;28;20483;-55
2023/10/16 10:50:34;;;;;;;8.37;1.90;;;10.50;43.30;;;;;;5027553;28;20458;-55
2023/10/16 10:53:03;;;;;;;4.80;1.40;;;10.50;39.00;;;;;;5018164;28;20477;-56
2023/10/16 10:55:29;;;;;;;7.40;1.70;;;10.50;51.30;;;;;;5027508;28;20463;-54
2023/10/16 10:57:58;;;;;;;7.03;1.30;;;10.50;42.30;;;;;;5022855;28;20472;-55
2023/10/16 11:03:09;;;;;;;5.50;1.93;;;10.30;64.10;;;;;;5028372;28;20541;-55
2023/10/16 11:05:42;;;;;;;4.43;1.60;;;10.20;64.70;;;;;;5025803;28;20459;-55
2023/10/16 11:08:29;;;;;;;7.03;1.70;;;10.10;49.50;;;;;;5028218;28;20490;-56
2023/10/16 11:10:56;;;;;;;5.03;1.87;;;10.10;49.50;;;;;;5027169;28;20841;-56
2023/10/16 11:13:26;;;;;;;5.87;1.77;;;10.00;50.30;;;;;;5022098;28;20458;-56
2023/10/16 11:15:54;;;;;;;6.50;2.30;;;9.90;59.40;;;;;;5030249;28;20459;-55
2023/10/16 11:18:26;;;;;;;7.03;1.70;;;10.00;49.10;;;;;;5029031;28;20549;-55
2023/10/16 11:20:53;;;;;;;3.70;1.40;;;10.30;35.20;;;;;;5023080;28;20470;-55
2023/10/16 11:23:22;;;;;;;7.97;1.33;;;10.50;45.80;;;;;;5025600;28;20835;-54
2023/10/16 11:25:51;;;;;;;4.13;1.40;;;10.80;46.80;;;;;;5023843;28;20484;-55
2023/10/16 11:28:21;;;;;;;4.00;1.33;;;11.10;60.90;;;;;;5025435;28;20865;-55
2023/10/16 11:30:49;;;;;;;5.90;1.43;;;11.40;85.80;;;;;;5024741;28;20468;-55
2023/10/16 11:33:26;;;;;;;9.13;1.87;;;11.60;83.80;;;;;;5028249;28;20530;-55
2023/10/16 11:35:54;;;;;;;3.87;1.40;;;11.60;99.90;;;;;;5021284;28;20979;-56
2023/10/16 11:38:29;;;;;;;3.90;1.50;;;11.50;99.90;;;;;;5018447;28;20574;-55
2023/10/16 11:40:56;;;;;;;6.97;1.50;;;11.40;99.90;;;;;;5022275;28;20465;-55
2023/10/16 11:43:23;;;;;;;6.60;2.23;;;11.40;99.90;;;;;;5030187;28;20497;-55
2023/10/16 11:45:53;;;;;;;3.40;1.40;;;11.30;99.90;;;;;;5022673;28;20577;-55
2023/10/16 11:48:35;;;;;;;4.20;1.37;;;11.10;99.90;;;;;;5020856;28;20831;-55
2023/10/16 11:51:08;;;;;;;5.10;1.20;;;11.00;99.90;;;;;;5024161;28;20470;-56
2023/10/16 11:53:37;;;;;;;4.27;1.60;;;10.90;99.90;;;;;;5030776;28;20471;-56
2023/10/16 11:56:05;;;;;;;4.07;1.33;;;10.80;95.20;;;;;;5023724;28;20459;-55
2023/10/16 11:58:31;;;;;;;6.90;1.90;;;10.70;91.20;;;;;;5027433;28;20482;-55
2023/10/16 12:01:08;;;;;;;5.37;1.50;;;10.60;72.10;;;;;;5034660;28;20463;-56
2023/10/16 12:03:37;;;;;;;2.60;0.93;;;10.60;74.90;;;;;;5021270;28;20892;-55
2023/10/16 12:06:08;;;;;;;3.73;1.40;;;10.50;94.10;;;;;;5029265;28;20462;-55
2023/10/16 12:08:35;;;;;;;9.60;2.03;;;10.50;98.90;;;;;;5030422;28;20485;-55
2023/10/16 12:11:03;;;;;;;6.63;1.33;;;10.60;96.10;;;;;;5021053;28;20512;-55
2023/10/16 12:13:30;;;;;;;6.50;1.87;;;10.60;88.30;;;;;;5024348;28;20463;-55
2023/10/16 12:15:57;;;;;;;3.63;1.37;;;10.70;91.00;;;;;;5023655;28;20475;-54
2023/10/16 12:18:26;;;;;;;1.97;1.30;;;10.60;95.70;;;;;;5029219;28;20988;-54
2023/10/16 12:20:52;;;;;;;4.07;1.37;;;10.70;95.00;;;;;;5021285;28;20470;-54
2023/10/16 12:23:21;;;;;;;1.43;1.07;;;10.90;99.90;;;;;;5017480;28;20464;-55
2023/10/16 12:25:49;;;;;;;3.40;1.13;;;11.00;99.90;;;;;;5021770;28;20466;-55
2023/10/16 12:28:15;;;;;;;2.77;1.23;;;11.00;99.90;;;;;;5026618;28;21252;-55
2023/10/16 12:30:42;;;;;;;2.50;1.40;;;11.00;99.90;;;;;;5028271;28;20465;-55
2023/10/16 12:33:09;;;;;;;1.43;1.00;;;11.10;99.90;;;;;;5033650;28;20493;-55
2023/10/16 12:35:36;;;;;;;3.57;1.40;;;11.10;99.90;;;;;;5030094;28;20463;-55
2023/10/16 12:38:04;;;;;;;4.97;1.50;;;11.10;99.90;;;;;;5030548;28;20490;-55
2023/10/16 12:40:37;;;;;;;2.40;1.13;;;11.00;99.90;;;;;;5027428;28;20466;-55
2023/10/16 12:43:05;;;;;;;2.63;1.00;;;11.00;99.90;;;;;;5023119;28;20460;-56
2023/10/16 12:45:33;;;;;;;5.37;2.20;;;10.90;99.90;;;;;;5021521;28;20549;-56
2023/10/16 12:48:00;;;;;;;2.80;1.93;;;10.90;99.90;;;;;;5029251;28;20510;-54
2023/10/16 12:50:27;;;;;;;6.73;2.70;;;11.00;99.90;;;;;;5022776;28;20462;-55
2023/10/16 12:52:55;;;;;;;5.00;2.30;;;10.90;99.90;;;;;;5026669;28;20545;-54
2023/10/16 12:55:22;;;;;;;9.47;2.23;;;10.90;99.90;;;;;;5025846;28;20460;-55
2023/10/16 12:57:51;;;;;;;4.43;1.30;;;10.80;99.90;;;;;;5028016;28;20623;-55
2023/10/16 13:00:19;;;;;;;9.20;1.70;;;10.80;99.90;;;;;;5022315;28;20454;-55
2023/10/16 13:02:46;;;;;;;8.00;1.40;;;10.90;99.90;;;;;;5027337;28;20515;-57
2023/10/16 13:05:14;;;;;;;4.23;1.37;;;10.80;99.90;;;;;;5024467;28;20467;-56
2023/10/16 13:07:41;;;;;;;3.50;1.63;;;10.70;99.90;;;;;;5022137;28;20470;-56
2023/10/16 13:10:09;;;;;;;3.77;0.90;;;10.70;99.90;;;;;;5021727;28;20846;-57
2023/10/16 13:12:39;;;;;;;4.83;1.33;;;10.70;99.90;;;;;;5031182;28;20545;-55
2023/10/16 13:15:08;;;;;;;4.57;1.37;;;10.70;99.90;;;;;;5022610;28;20460;-56
2023/10/16 13:17:35;;;;;;;4.40;1.63;;;10.80;99.90;;;;;;5035225;28;20474;-55
2023/10/16 13:20:04;;;;;;;5.60;1.20;;;10.80;99.90;;;;;;5035031;28;20447;-55
2023/10/16 13:22:31;;;;;;;7.77;2.17;;;10.80;99.90;;;;;;5030410;28;20462;-56
2023/10/16 13:24:59;;;;;;;11.43;1.80;;;10.80;99.90;;;;;;5023772;28;20444;-56
2023/10/16 13:27:25;;;;;;;4.50;1.60;;;10.80;99.90;;;;;;5025071;28;20553;-54
2023/10/16 13:29:53;;;;;;;4.00;1.93;;;10.80;99.90;;;;;;5036823;28;20895;-57
2023/10/16 13:32:21;;;;;;;2.30;1.30;;;10.80;99.90;;;;;;5039876;28;20489;-57
2023/10/16 13:34:50;;;;;;;4.20;1.30;;;10.90;99.90;;;;;;5047370;28;20515;-56
2023/10/16 13:37:18;;;;;;;6.80;1.90;;;11.00;99.90;;;;;;5055106;28;20478;-57
2023/10/16 13:39:45;;;;;;;3.53;1.33;;;10.90;99.90;;;;;;5046555;28;20454;-56
2023/10/16 13:42:14;;;;;;;5.27;1.40;;;11.00;99.90;;;;;;5047621;28;20431;-56
2023/10/16 13:44:42;;;;;;;3.17;1.03;;;10.90;99.90;;;;;;5049725;28;20451;-58
2023/10/16 13:47:10;;;;;;;7.23;1.80;;;10.80;99.90;;;;;;5052124;28;20443;-56
2023/10/16 13:49:38;;;;;;;3.00;1.57;;;10.80;99.90;;;;;;5042852;28;20459;-56
2023/10/16 13:52:07;;;;;;;4.00;1.43;;;10.90;99.90;;;;;;5027990;28;20541;-56
2023/10/16 13:54:35;;;;;;;4.20;1.33;;;10.90;99.90;;;;;;5029313;28;20463;-56
2023/10/16 13:57:02;;;;;;;1.57;1.03;;;11.00;99.90;;;;;;5027536;28;20553;-54
2023/10/16 13:59:29;;;;;;;2.70;1.60;;;10.90;99.90;;;;;;5021420;28;20964;-54
2023/10/16 14:01:56;;;;;;;3.17;2.00;;;10.90;99.90;;;;;;5030368;28;20466;-55
2023/10/16 14:04:25;;;;;;;14.70;1.43;;;10.90;99.90;;;;;;5026641;28;20463;-56
2023/10/16 14:06:53;;;;;;;8.27;1.50;;;10.70;99.90;;;;;;5023271;28;20554;-55
2023/10/16 14:09:20;;;;;;;1.73;1.20;;;10.70;97.70;;;;;;5022058;28;20588;-55
2023/10/16 14:11:50;;;;;;;2.27;1.40;;;10.60;95.30;;;;;;5032079;28;21007;-55
2023/10/16 14:14:19;;;;;;;4.90;0.97;;;10.60;91.00;;;;;;5032866;28;20454;-55
2023/10/16 14:16:49;;;;;;;5.23;1.60;;;10.50;81.30;;;;;;5030191;28;20501;-55
2023/10/16 14:19:17;;;;;;;3.50;1.10;;;10.30;92.60;;;;;;5026994;28;20482;-55
2023/10/16 14:21:44;;;;;;;5.43;1.10;;;10.20;99.90;;;;;;5022000;28;20464;-56
2023/10/16 14:24:17;;;;;;;2.33;1.00;;;10.20;99.90;;;;;;5019918;28;20463;-56
2023/10/16 14:26:44;;;;;;;4.50;1.80;;;10.20;99.90;;;;;;5023852;28;20467;-56
2023/10/16 14:29:11;;;;;;;1.83;1.00;;;10.30;99.90;;;;;;5031780;28;20984;-55
2023/10/16 14:31:38;;;;;;;12.27;1.77;;;10.30;99.90;;;;;;5025277;28;20494;-55